createdAt,value
2024-02-03T00:00:02.775Z,71.78
2024-02-03T00:00:23.538Z,71.79
2024-02-03T00:00:44.062Z,71.8
2024-02-03T00:01:04.684Z,71.8
2024-02-03T00:01:25.367Z,71.83
2024-02-03T00:01:45.776Z,71.85
2024-02-03T00:02:06.292Z,71.7
2024-02-03T00:02:26.861Z,71.67
2024-02-03T00:02:47.440Z,71.53
2024-02-03T00:03:07.993Z,71.44
2024-02-03T00:03:28.614Z,71.58
2024-02-03T00:03:49.377Z,71.71
2024-02-03T00:04:09.827Z,71.63
2024-02-03T00:04:30.473Z,71.53
2024-02-03T00:04:50.962Z,71.49
2024-02-03T00:05:11.455Z,71.72
2024-02-03T00:05:32.090Z,71.74
2024-02-03T00:05:52.624Z,71.8
2024-02-03T00:06:13.216Z,71.87
2024-02-03T00:06:33.838Z,71.7
2024-02-03T00:06:54.384Z,71.55
2024-02-03T00:07:14.888Z,71.53
2024-02-03T00:07:35.486Z,71.72
2024-02-03T00:07:56.011Z,71.77
2024-02-03T00:08:16.705Z,71.75
2024-02-03T00:08:37.166Z,71.62
2024-02-03T00:08:57.726Z,71.52
2024-02-03T00:09:18.253Z,71.46
2024-02-03T00:09:38.902Z,71.4
2024-02-03T00:09:59.466Z,71.27
2024-02-03T00:10:20.048Z,71.13
2024-02-03T00:10:40.605Z,71.02
2024-02-03T00:11:01.177Z,70.92
2024-02-03T00:11:22.506Z,70.92
2024-02-03T00:11:42.369Z,70.82
2024-02-03T00:12:02.896Z,70.72
2024-02-03T00:12:23.508Z,70.62
2024-02-03T00:12:44.102Z,70.54
2024-02-03T00:13:04.628Z,70.47
2024-02-03T00:13:25.186Z,70.8
2024-02-03T00:13:45.761Z,70.75
2024-02-03T00:14:06.316Z,70.61
2024-02-03T00:14:26.935Z,70.51
2024-02-03T00:14:47.470Z,70.42
2024-02-03T00:15:08.077Z,70.46
2024-02-03T00:15:28.701Z,70.36
2024-02-03T00:15:49.259Z,70.34
2024-02-03T00:16:09.742Z,70.38
2024-02-03T00:16:30.323Z,70.28
2024-02-03T00:16:50.942Z,70.22
2024-02-03T00:17:11.492Z,70.33
2024-02-03T00:17:32.102Z,70.42
2024-02-03T00:17:52.531Z,70.47
2024-02-03T00:18:13.315Z,70.47
2024-02-03T00:18:33.787Z,70.35
2024-02-03T00:18:54.389Z,70.33
2024-02-03T00:19:14.996Z,70.5
2024-02-03T00:19:35.550Z,70.56
2024-02-03T00:19:56.120Z,70.47
2024-02-03T00:20:16.628Z,70.37
2024-02-03T00:20:37.206Z,70.29
2024-02-03T00:20:57.791Z,70.2
2024-02-03T00:21:18.397Z,70.21
2024-02-03T00:21:38.885Z,70.34
2024-02-03T00:21:59.485Z,70.53
2024-02-03T00:22:20.058Z,70.47
2024-02-03T00:22:40.667Z,70.3
2024-02-03T00:23:01.201Z,70.13
2024-02-03T00:23:21.738Z,70.08
2024-02-03T00:23:42.343Z,70.13
2024-02-03T00:24:02.928Z,70.21
2024-02-03T00:24:23.606Z,70.2
2024-02-03T00:24:44.194Z,70.1
2024-02-03T00:25:04.626Z,70.02
2024-02-03T00:25:25.232Z,69.95
2024-02-03T00:25:45.776Z,69.98
2024-02-03T00:26:06.352Z,69.96
2024-02-03T00:26:26.943Z,70.02
2024-02-03T00:26:47.501Z,70.09
2024-02-03T00:27:08.124Z,70.25
2024-02-03T00:27:28.703Z,70.17
2024-02-03T00:27:49.223Z,70.07
2024-02-03T00:28:09.784Z,70.08
2024-02-03T00:28:30.352Z,70
2024-02-03T00:28:50.925Z,70.08
2024-02-03T00:29:11.496Z,70.09
2024-02-03T00:29:32.104Z,70.02
2024-02-03T00:29:52.666Z,70.03
2024-02-03T00:30:13.264Z,70.14
2024-02-03T00:30:33.829Z,70.22
2024-02-03T00:30:54.419Z,70.21
2024-02-03T00:31:14.948Z,70.16
2024-02-03T00:31:35.641Z,70.16
2024-02-03T00:31:56.144Z,70.13
2024-02-03T00:32:16.693Z,70.12
2024-02-03T00:32:37.304Z,70.01
2024-02-03T00:32:57.948Z,69.9
2024-02-03T00:33:18.555Z,69.81
2024-02-03T00:33:39.021Z,69.73
2024-02-03T00:33:59.638Z,69.59
2024-02-03T00:34:20.081Z,69.56
2024-02-03T00:34:40.955Z,69.47
2024-02-03T00:35:01.369Z,69.57
2024-02-03T00:35:21.816Z,69.53
2024-02-03T00:35:42.405Z,69.46
2024-02-03T00:36:02.958Z,69.56
2024-02-03T00:36:23.490Z,69.55
2024-02-03T00:36:44.318Z,69.71
2024-02-03T00:37:04.675Z,69.83
2024-02-03T00:37:25.266Z,70
2024-02-03T00:37:45.843Z,70.19
2024-02-03T00:38:06.405Z,70.39
2024-02-03T00:38:26.965Z,70.3
2024-02-03T00:38:47.545Z,70.26
2024-02-03T00:39:08.114Z,70.14
2024-02-03T00:39:28.723Z,70.09
2024-02-03T00:39:49.350Z,69.99
2024-02-03T00:40:09.858Z,69.93
2024-02-03T00:40:30.423Z,69.96
2024-02-03T00:40:50.986Z,70.22
2024-02-03T00:41:11.539Z,70.26
2024-02-03T00:41:32.505Z,70.29
2024-02-03T00:41:52.758Z,70.35
2024-02-03T00:42:13.344Z,70.28
2024-02-03T00:42:33.953Z,70.18
2024-02-03T00:42:54.547Z,70.11
2024-02-03T00:43:15.003Z,70.04
2024-02-03T00:43:35.617Z,69.97
2024-02-03T00:43:56.140Z,69.96
2024-02-03T00:44:16.823Z,69.87
2024-02-03T00:44:37.276Z,70.03
2024-02-03T00:44:57.847Z,69.96
2024-02-03T00:45:18.461Z,69.98
2024-02-03T00:45:59.570Z,70.15
2024-02-03T00:46:20.116Z,70.27
2024-02-03T00:46:40.737Z,70.39
2024-02-03T00:47:01.294Z,70.53
2024-02-03T00:47:21.859Z,70.38
2024-02-03T00:47:42.476Z,70.5
2024-02-03T00:48:03.082Z,70.47
2024-02-03T00:48:23.720Z,70.42
2024-02-03T00:48:44.236Z,70.4
2024-02-03T00:49:04.896Z,70.39
2024-02-03T00:49:25.338Z,70.44
2024-02-03T00:49:46.048Z,70.65
2024-02-03T00:50:06.427Z,70.72
2024-02-03T00:50:27.000Z,70.73
2024-02-03T00:50:47.574Z,70.58
2024-02-03T00:51:08.177Z,70.55
2024-02-03T00:51:28.745Z,70.54
2024-02-03T00:51:49.346Z,70.48
2024-02-03T00:52:09.856Z,70.68
2024-02-03T00:52:30.434Z,70.72
2024-02-03T00:52:51.016Z,70.78
2024-02-03T00:53:11.569Z,70.9
2024-02-03T00:53:32.173Z,70.84
2024-02-03T00:53:52.750Z,70.76
2024-02-03T00:54:13.347Z,70.78
2024-02-03T00:54:50.397Z,70.61
2024-02-03T00:55:10.955Z,70.6
2024-02-03T00:55:31.506Z,70.63
2024-02-03T00:55:52.104Z,70.64
2024-02-03T00:56:12.632Z,70.69
2024-02-03T00:56:33.302Z,70.56
2024-02-03T00:56:53.791Z,70.45
2024-02-03T00:57:14.371Z,70.37
2024-02-03T00:57:34.957Z,70.37
2024-02-03T00:57:55.555Z,70.5
2024-02-03T00:58:16.093Z,70.71
2024-02-03T00:58:36.575Z,70.82
2024-02-03T00:58:57.246Z,70.71
2024-02-03T00:59:38.363Z,70.48
2024-02-03T00:59:58.954Z,70.47
2024-02-03T01:00:19.514Z,70.36
2024-02-03T01:00:40.189Z,70.32
2024-02-03T01:01:00.739Z,70.27
2024-02-03T01:01:21.298Z,70.26
2024-02-03T01:01:41.870Z,70.25
2024-02-03T01:02:02.413Z,70.33
2024-02-03T01:02:22.940Z,70.41
2024-02-03T01:02:43.549Z,70.34
2024-02-03T01:03:04.094Z,70.26
2024-02-03T01:03:24.688Z,70.22
2024-02-03T01:03:45.324Z,70.13
2024-02-03T01:04:05.946Z,70.11
2024-02-03T01:04:26.396Z,70.18
2024-02-03T01:04:47.013Z,70.21
2024-02-03T01:05:07.532Z,70.19
2024-02-03T01:05:28.128Z,70.18
2024-02-03T01:05:48.759Z,70.14
2024-02-03T01:06:09.353Z,70.13
2024-02-03T01:06:29.853Z,70.22
2024-02-03T01:06:50.426Z,70.11
2024-02-03T01:07:10.988Z,70.28
2024-02-03T01:07:32.216Z,70.42
2024-02-03T01:07:53.452Z,70.77
2024-02-03T01:08:12.691Z,70.73
2024-02-03T01:08:33.251Z,70.63
2024-02-03T01:08:53.823Z,70.55
2024-02-03T01:09:14.422Z,70.57
2024-02-03T01:09:34.921Z,70.64
2024-02-03T01:09:55.551Z,70.61
2024-02-03T01:10:16.110Z,70.45
2024-02-03T01:10:36.701Z,70.32
2024-02-03T01:10:57.243Z,70.24
2024-02-03T01:11:17.822Z,70.15
2024-02-03T01:11:38.404Z,70.25
2024-02-03T01:11:59.008Z,70.14
2024-02-03T01:12:19.603Z,70.06
2024-02-03T01:12:40.154Z,70.11
2024-02-03T01:13:00.772Z,70.19
2024-02-03T01:13:21.289Z,70.05
2024-02-03T01:13:42.024Z,70.06
2024-02-03T01:14:02.409Z,69.99
2024-02-03T01:14:23.008Z,70.12
2024-02-03T01:14:43.559Z,70.47
2024-02-03T01:15:04.152Z,70.36
2024-02-03T01:15:24.747Z,70.19
2024-02-03T01:15:45.383Z,70.08
2024-02-03T01:16:05.842Z,70
2024-02-03T01:16:26.415Z,70.02
2024-02-03T01:16:47.009Z,69.92
2024-02-03T01:17:07.589Z,69.78
2024-02-03T01:17:28.145Z,69.72
2024-02-03T01:17:48.750Z,69.72
2024-02-03T01:18:09.444Z,69.72
2024-02-03T01:18:30.071Z,69.7
2024-02-03T01:18:50.513Z,69.69
2024-02-03T01:19:11.140Z,69.64
2024-02-03T01:19:31.760Z,69.61
2024-02-03T01:19:52.217Z,69.64
2024-02-03T01:20:12.740Z,69.72
2024-02-03T01:20:33.313Z,69.74
2024-02-03T01:20:53.859Z,69.67
2024-02-03T01:21:14.500Z,69.66
2024-02-03T01:21:35.096Z,69.73
2024-02-03T01:21:55.636Z,69.68
2024-02-03T01:22:16.168Z,69.62
2024-02-03T01:22:36.733Z,69.66
2024-02-03T01:22:57.301Z,69.89
2024-02-03T01:23:17.872Z,69.96
2024-02-03T01:23:38.430Z,69.88
2024-02-03T01:23:58.996Z,69.74
2024-02-03T01:24:19.603Z,69.8
2024-02-03T01:24:40.199Z,69.79
2024-02-03T01:25:00.740Z,69.67
2024-02-03T01:25:21.340Z,69.6
2024-02-03T01:25:41.872Z,69.5
2024-02-03T01:26:02.443Z,69.42
2024-02-03T01:26:23.023Z,69.33
2024-02-03T01:26:43.594Z,69.28
2024-02-03T01:27:04.193Z,69.17
2024-02-03T01:27:25.162Z,69
2024-02-03T01:27:45.390Z,68.9
2024-02-03T01:28:05.884Z,68.8
2024-02-03T01:28:47.059Z,68.69
2024-02-03T01:29:07.586Z,68.66
2024-02-03T01:29:30.202Z,68.72
2024-02-03T01:29:48.721Z,69.06
2024-02-03T01:30:09.390Z,69.18
2024-02-03T01:30:29.931Z,69.25
2024-02-03T01:30:50.555Z,69.14
2024-02-03T01:31:11.033Z,69.24
2024-02-03T01:31:31.599Z,69.21
2024-02-03T01:31:52.202Z,69.19
2024-02-03T01:32:12.739Z,69.19
2024-02-03T01:32:33.464Z,69.5
2024-02-03T01:32:53.957Z,69.36
2024-02-03T01:33:14.539Z,69.27
2024-02-03T01:33:35.174Z,69.21
2024-02-03T01:33:55.664Z,69.23
2024-02-03T01:34:16.284Z,69.23
2024-02-03T01:34:36.880Z,69.24
2024-02-03T01:34:57.294Z,69.32
2024-02-03T01:35:17.904Z,69.36
2024-02-03T01:35:38.471Z,69.31
2024-02-03T01:35:59.042Z,69.46
2024-02-03T01:36:19.689Z,69.41
2024-02-03T01:36:40.211Z,69.33
2024-02-03T01:37:00.778Z,69.36
2024-02-03T01:37:21.330Z,69.3
2024-02-03T01:37:41.944Z,69.27
2024-02-03T01:38:02.490Z,69.19
2024-02-03T01:38:23.055Z,69.42
2024-02-03T01:38:43.614Z,69.48
2024-02-03T01:39:04.186Z,69.39
2024-02-03T01:39:24.805Z,69.34
2024-02-03T01:39:45.407Z,69.27
2024-02-03T01:40:05.934Z,69.27
2024-02-03T01:40:26.435Z,69.29
2024-02-03T01:40:47.089Z,69.3
2024-02-03T01:41:07.668Z,69.42
2024-02-03T01:41:28.240Z,69.44
2024-02-03T01:41:48.778Z,69.52
2024-02-03T01:42:09.350Z,69.42
2024-02-03T01:42:29.953Z,69.37
2024-02-03T01:42:50.558Z,69.3
2024-02-03T01:43:11.058Z,69.31
2024-02-03T01:43:31.644Z,69.23
2024-02-03T01:43:52.237Z,69.21
2024-02-03T01:44:12.782Z,69.14
2024-02-03T01:44:33.384Z,69.13
2024-02-03T01:44:53.924Z,69.15
2024-02-03T01:45:14.650Z,69.29
2024-02-03T01:45:35.179Z,69.31
2024-02-03T01:45:55.760Z,69.34
2024-02-03T01:46:16.244Z,69.34
2024-02-03T01:46:36.825Z,69.47
2024-02-03T01:46:57.364Z,69.54
2024-02-03T01:47:17.952Z,69.65
2024-02-03T01:47:38.559Z,69.54
2024-02-03T01:47:59.109Z,69.45
2024-02-03T01:48:19.902Z,69.35
2024-02-03T01:48:40.306Z,69.29
2024-02-03T01:49:00.871Z,69.29
2024-02-03T01:49:21.438Z,69.2
2024-02-03T01:49:42.103Z,69.21
2024-02-03T01:50:02.524Z,69.23
2024-02-03T01:50:23.077Z,69.24
2024-02-03T01:50:43.693Z,69.28
2024-02-03T01:51:04.272Z,69.35
2024-02-03T01:51:24.848Z,69.26
2024-02-03T01:51:45.479Z,69.29
2024-02-03T01:52:05.941Z,69.29
2024-02-03T01:52:26.543Z,69.19
2024-02-03T01:52:47.096Z,69.11
2024-02-03T01:53:07.676Z,69.19
2024-02-03T01:53:28.255Z,69.27
2024-02-03T01:53:48.717Z,69.4
2024-02-03T01:54:09.463Z,69.42
2024-02-03T01:54:30.070Z,69.36
2024-02-03T01:54:50.615Z,69.32
2024-02-03T01:55:11.131Z,69.26
2024-02-03T01:55:31.742Z,69.18
2024-02-03T01:55:52.289Z,69.16
2024-02-03T01:56:12.817Z,69.14
2024-02-03T01:56:33.388Z,69.14
2024-02-03T01:56:53.962Z,69.12
2024-02-03T01:57:14.594Z,69.1
2024-02-03T01:57:35.135Z,69.01
2024-02-03T01:57:55.716Z,68.98
2024-02-03T01:58:16.294Z,69
2024-02-03T01:58:36.916Z,69.03
2024-02-03T01:58:57.402Z,69.14
2024-02-03T01:59:17.953Z,69.04
2024-02-03T01:59:38.561Z,68.98
2024-02-03T01:59:59.145Z,68.95
2024-02-03T02:00:19.816Z,68.84
2024-02-03T02:00:40.483Z,68.76
2024-02-03T02:01:00.893Z,68.67
2024-02-03T02:01:21.492Z,68.62
2024-02-03T02:01:42.025Z,68.6
2024-02-03T02:02:02.544Z,68.57
2024-02-03T02:02:23.110Z,68.62
2024-02-03T02:02:43.710Z,68.68
2024-02-03T02:03:04.365Z,68.7
2024-02-03T02:03:41.407Z,68.72
2024-02-03T02:04:01.983Z,68.74
2024-02-03T02:04:22.620Z,68.69
2024-02-03T02:04:43.069Z,68.7
2024-02-03T02:05:03.606Z,68.71
2024-02-03T02:05:24.195Z,68.72
2024-02-03T02:05:44.773Z,68.91
2024-02-03T02:06:05.423Z,69.15
2024-02-03T02:06:28.842Z,69.23
2024-02-03T02:06:46.586Z,69.21
2024-02-03T02:07:07.094Z,69.2
2024-02-03T02:07:27.628Z,69.2
2024-02-03T02:07:48.204Z,69.21
2024-02-03T02:08:08.775Z,69.24
2024-02-03T02:08:29.340Z,69.38
2024-02-03T02:08:49.897Z,69.42
2024-02-03T02:09:10.449Z,69.39
2024-02-03T02:09:31.063Z,69.52
2024-02-03T02:09:51.668Z,69.63
2024-02-03T02:10:12.205Z,69.49
2024-02-03T02:10:32.788Z,69.44
2024-02-03T02:10:53.322Z,69.46
2024-02-03T02:11:13.907Z,69.53
2024-02-03T02:11:34.470Z,69.44
2024-02-03T02:11:55.048Z,69.35
2024-02-03T02:12:15.631Z,69.4
2024-02-03T02:12:36.280Z,69.42
2024-02-03T02:12:56.821Z,69.34
2024-02-03T02:13:17.376Z,69.34
2024-02-03T02:13:37.934Z,69.17
2024-02-03T02:13:58.484Z,69.18
2024-02-03T02:14:19.048Z,69.19
2024-02-03T02:14:39.628Z,69.08
2024-02-03T02:15:00.232Z,69
2024-02-03T02:15:20.855Z,68.95
2024-02-03T02:15:41.377Z,68.95
2024-02-03T02:16:01.945Z,68.83
2024-02-03T02:16:22.502Z,69.33
2024-02-03T02:16:43.057Z,69.39
2024-02-03T02:17:03.627Z,69.51
2024-02-03T02:17:24.221Z,69.65
2024-02-03T02:17:44.813Z,69.45
2024-02-03T02:18:05.429Z,69.45
2024-02-03T02:18:26.166Z,69.39
2024-02-03T02:18:46.790Z,69.43
2024-02-03T02:19:07.182Z,69.37
2024-02-03T02:19:27.839Z,69.32
2024-02-03T02:19:48.299Z,69.2
2024-02-03T02:20:08.770Z,69.12
2024-02-03T02:20:29.366Z,69.04
2024-02-03T02:20:49.964Z,68.94
2024-02-03T02:21:10.590Z,68.97
2024-02-03T02:21:31.101Z,68.95
2024-02-03T02:21:51.702Z,68.84
2024-02-03T02:22:12.213Z,68.85
2024-02-03T02:22:32.795Z,68.73
2024-02-03T02:22:53.374Z,68.82
2024-02-03T02:23:13.945Z,68.94
2024-02-03T02:23:34.513Z,69.08
2024-02-03T02:23:55.091Z,69.02
2024-02-03T02:24:15.734Z,68.88
2024-02-03T02:24:36.294Z,69.01
2024-02-03T02:24:56.803Z,69.27
2024-02-03T02:25:17.365Z,69.22
2024-02-03T02:25:37.973Z,69.2
2024-02-03T02:25:58.552Z,69.03
2024-02-03T02:26:39.668Z,68.77
2024-02-03T02:27:00.254Z,68.8
2024-02-03T02:27:20.883Z,68.71
2024-02-03T02:27:41.389Z,68.62
2024-02-03T02:28:01.997Z,68.64
2024-02-03T02:28:22.529Z,68.77
2024-02-03T02:28:43.105Z,68.85
2024-02-03T02:29:03.706Z,68.72
2024-02-03T02:29:24.276Z,68.67
2024-02-03T02:29:44.847Z,68.69
2024-02-03T02:30:05.393Z,68.66
2024-02-03T02:30:26.027Z,68.78
2024-02-03T02:30:46.616Z,68.72
2024-02-03T02:31:07.096Z,68.62
2024-02-03T02:31:27.681Z,68.57
2024-02-03T02:31:48.257Z,68.48
2024-02-03T02:32:08.846Z,68.38
2024-02-03T02:32:29.430Z,68.38
2024-02-03T02:32:50.081Z,68.34
2024-02-03T02:33:10.724Z,68.41
2024-02-03T02:33:31.221Z,68.37
2024-02-03T02:33:51.910Z,68.27
2024-02-03T02:34:12.353Z,68.24
2024-02-03T02:34:32.868Z,68.29
2024-02-03T02:34:53.402Z,68.28
2024-02-03T02:35:14.018Z,68.26
2024-02-03T02:35:34.540Z,68.25
2024-02-03T02:35:55.138Z,68.16
2024-02-03T02:36:15.726Z,68.07
2024-02-03T02:36:36.349Z,68.09
2024-02-03T02:36:56.873Z,68.06
2024-02-03T02:37:17.401Z,68.1
2024-02-03T02:37:37.975Z,68.06
2024-02-03T02:37:58.559Z,68.05
2024-02-03T02:38:19.127Z,68.16
2024-02-03T02:38:39.720Z,68.25
2024-02-03T02:39:00.280Z,68.25
2024-02-03T02:39:20.998Z,68.21
2024-02-03T02:39:41.521Z,68.14
2024-02-03T02:40:02.041Z,68.04
2024-02-03T02:40:22.563Z,68.04
2024-02-03T02:40:43.142Z,68.13
2024-02-03T02:41:03.735Z,68
2024-02-03T02:41:24.271Z,67.91
2024-02-03T02:41:44.854Z,67.81
2024-02-03T02:42:05.423Z,67.74
2024-02-03T02:42:26.034Z,67.89
2024-02-03T02:42:46.631Z,67.9
2024-02-03T02:43:07.159Z,68.01
2024-02-03T02:43:27.715Z,68.31
2024-02-03T02:43:48.313Z,68.14
2024-02-03T02:44:08.862Z,68
2024-02-03T02:44:29.588Z,67.98
2024-02-03T02:44:49.993Z,67.95
2024-02-03T02:45:10.620Z,68.07
2024-02-03T02:45:31.260Z,68.06
2024-02-03T02:45:51.796Z,68
2024-02-03T02:46:12.284Z,67.91
2024-02-03T02:46:32.874Z,67.88
2024-02-03T02:46:53.445Z,67.74
2024-02-03T02:47:14.067Z,67.76
2024-02-03T02:47:34.636Z,67.83
2024-02-03T02:47:55.361Z,67.69
2024-02-03T02:48:15.897Z,67.62
2024-02-03T02:48:36.433Z,67.58
2024-02-03T02:48:56.962Z,67.49
2024-02-03T02:49:17.528Z,67.53
2024-02-03T02:49:38.228Z,67.62
2024-02-03T02:49:58.583Z,67.61
2024-02-03T02:50:19.199Z,67.52
2024-02-03T02:50:39.949Z,67.46
2024-02-03T02:51:00.298Z,67.36
2024-02-03T02:51:41.557Z,67.37
2024-02-03T02:52:02.045Z,67.42
2024-02-03T02:52:22.579Z,67.29
2024-02-03T02:52:43.193Z,67.27
2024-02-03T02:53:03.752Z,67.26
2024-02-03T02:53:24.320Z,67.27
2024-02-03T02:54:05.522Z,67.24
2024-02-03T02:54:26.056Z,67.19
2024-02-03T02:54:46.690Z,67.2
2024-02-03T02:55:07.194Z,67.14
2024-02-03T02:55:27.757Z,67.31
2024-02-03T02:55:48.349Z,67.42
2024-02-03T02:56:08.899Z,67.33
2024-02-03T02:56:29.477Z,67.24
2024-02-03T02:56:50.046Z,67.1
2024-02-03T02:57:10.692Z,66.99
2024-02-03T02:57:31.227Z,66.97
2024-02-03T02:57:51.855Z,66.91
2024-02-03T02:58:12.365Z,66.96
2024-02-03T02:58:32.904Z,66.96
2024-02-03T02:58:53.507Z,66.9
2024-02-03T02:59:14.047Z,66.82
2024-02-03T02:59:34.663Z,66.77
2024-02-03T02:59:55.208Z,66.66
2024-02-03T03:00:15.791Z,66.68
2024-02-03T03:00:36.468Z,66.64
2024-02-03T03:00:56.946Z,66.56
2024-02-03T03:01:17.550Z,66.52
2024-02-03T03:01:38.124Z,66.55
2024-02-03T03:01:58.638Z,66.5
2024-02-03T03:02:19.240Z,66.75
2024-02-03T03:02:39.809Z,66.72
2024-02-03T03:03:00.418Z,66.62
2024-02-03T03:03:20.989Z,66.78
2024-02-03T03:03:41.576Z,66.71
2024-02-03T03:04:02.135Z,66.65
2024-02-03T03:04:22.911Z,66.6
2024-02-03T03:04:43.331Z,66.87
2024-02-03T03:05:03.791Z,66.92
2024-02-03T03:05:24.348Z,66.82
2024-02-03T03:05:44.960Z,66.8
2024-02-03T03:06:05.489Z,66.69
2024-02-03T03:06:26.122Z,66.6
2024-02-03T03:06:46.685Z,66.71
2024-02-03T03:07:07.271Z,66.68
2024-02-03T03:07:27.830Z,66.63
2024-02-03T03:07:48.429Z,66.51
2024-02-03T03:08:09.027Z,66.42
2024-02-03T03:08:29.511Z,66.35
2024-02-03T03:08:50.075Z,66.33
2024-02-03T03:09:10.723Z,66.31
2024-02-03T03:09:31.285Z,66.27
2024-02-03T03:09:51.865Z,66.27
2024-02-03T03:10:12.362Z,66.3
2024-02-03T03:10:32.925Z,66.38
2024-02-03T03:10:53.530Z,66.32
2024-02-03T03:11:14.079Z,66.25
2024-02-03T03:11:34.669Z,66.31
2024-02-03T03:11:55.238Z,66.25
2024-02-03T03:12:32.648Z,66.15
2024-02-03T03:12:52.904Z,66.14
2024-02-03T03:13:13.419Z,66.13
2024-02-03T03:13:33.996Z,66.18
2024-02-03T03:13:54.568Z,66.34
2024-02-03T03:14:15.124Z,66.24
2024-02-03T03:14:35.709Z,66.27
2024-02-03T03:14:56.279Z,66.21
2024-02-03T03:15:16.936Z,66.14
2024-02-03T03:15:37.578Z,66.16
2024-02-03T03:15:57.994Z,66.15
2024-02-03T03:16:18.581Z,66.13
2024-02-03T03:16:39.161Z,66.2
2024-02-03T03:16:59.712Z,66.21
2024-02-03T03:17:20.302Z,66.19
2024-02-03T03:17:40.894Z,66.1
2024-02-03T03:18:01.502Z,66.04
2024-02-03T03:18:22.231Z,65.97
2024-02-03T03:18:42.932Z,65.89
2024-02-03T03:19:03.265Z,65.86
2024-02-03T03:19:23.809Z,65.96
2024-02-03T03:19:44.327Z,65.89
2024-02-03T03:20:04.948Z,65.9
2024-02-03T03:20:25.445Z,65.91
2024-02-03T03:20:45.931Z,65.85
2024-02-03T03:21:06.650Z,65.75
2024-02-03T03:21:27.206Z,65.69
2024-02-03T03:21:47.869Z,65.63
2024-02-03T03:22:08.298Z,65.64
2024-02-03T03:22:28.885Z,65.64
2024-02-03T03:22:49.484Z,65.57
2024-02-03T03:23:10.040Z,65.62
2024-02-03T03:23:30.725Z,65.64
2024-02-03T03:23:51.266Z,65.64
2024-02-03T03:24:11.776Z,65.61
2024-02-03T03:24:32.319Z,65.57
2024-02-03T03:24:52.920Z,65.5
2024-02-03T03:25:13.441Z,65.43
2024-02-03T03:25:34.022Z,65.65
2024-02-03T03:25:54.636Z,65.67
2024-02-03T03:26:15.190Z,65.76
2024-02-03T03:26:35.789Z,65.75
2024-02-03T03:26:56.403Z,65.79
2024-02-03T03:27:16.965Z,65.83
2024-02-03T03:27:37.593Z,65.85
2024-02-03T03:27:58.172Z,65.8
2024-02-03T03:28:18.606Z,65.71
2024-02-03T03:28:39.180Z,65.67
2024-02-03T03:28:59.795Z,65.62
2024-02-03T03:29:20.319Z,65.68
2024-02-03T03:29:40.917Z,65.67
2024-02-03T03:30:01.485Z,65.61
2024-02-03T03:30:22.075Z,65.73
2024-02-03T03:30:42.596Z,65.83
2024-02-03T03:31:03.212Z,65.86
2024-02-03T03:31:23.785Z,65.86
2024-02-03T03:31:44.366Z,65.8
2024-02-03T03:32:04.909Z,65.8
2024-02-03T03:32:25.560Z,65.92
2024-02-03T03:32:46.103Z,66.04
2024-02-03T03:33:06.747Z,66.06
2024-02-03T03:33:27.379Z,66
2024-02-03T03:33:47.920Z,65.86
2024-02-03T03:34:08.470Z,65.73
2024-02-03T03:34:29.256Z,65.67
2024-02-03T03:34:49.549Z,65.61
2024-02-03T03:35:10.092Z,65.7
2024-02-03T03:35:30.626Z,65.87
2024-02-03T03:35:51.207Z,65.92
2024-02-03T03:36:11.812Z,66.19
2024-02-03T03:36:32.477Z,66.25
2024-02-03T03:36:52.960Z,66.21
2024-02-03T03:37:13.498Z,66.19
2024-02-03T03:37:34.048Z,66.09
2024-02-03T03:37:54.648Z,66.25
2024-02-03T03:38:15.228Z,66.26
2024-02-03T03:38:35.782Z,66.27
2024-02-03T03:38:56.343Z,66.32
2024-02-03T03:39:16.950Z,66.32
2024-02-03T03:39:37.723Z,66.2
2024-02-03T03:39:58.080Z,66.11
2024-02-03T03:40:18.650Z,66.09
2024-02-03T03:40:39.136Z,66.12
2024-02-03T03:40:59.794Z,66.09
2024-02-03T03:41:20.405Z,66.11
2024-02-03T03:41:40.932Z,66.09
2024-02-03T03:42:01.504Z,66.03
2024-02-03T03:42:22.125Z,65.93
2024-02-03T03:42:42.703Z,66.01
2024-02-03T03:43:03.230Z,65.9
2024-02-03T03:43:23.814Z,66.21
2024-02-03T03:43:44.383Z,66.4
2024-02-03T03:44:04.970Z,66.4
2024-02-03T03:44:25.544Z,66.65
2024-02-03T03:44:46.079Z,66.97
2024-02-03T03:45:06.644Z,67.04
2024-02-03T03:45:27.265Z,67.11
2024-02-03T03:45:47.861Z,66.89
2024-02-03T03:46:08.295Z,66.9
2024-02-03T03:46:28.990Z,66.76
2024-02-03T03:46:49.538Z,66.78
2024-02-03T03:47:10.104Z,66.7
2024-02-03T03:47:30.678Z,66.6
2024-02-03T03:47:51.288Z,66.53
2024-02-03T03:48:11.938Z,66.46
2024-02-03T03:48:32.497Z,66.39
2024-02-03T03:48:53.063Z,66.47
2024-02-03T03:49:13.577Z,66.46
2024-02-03T03:49:34.484Z,66.45
2024-02-03T03:49:54.812Z,66.42
2024-02-03T03:50:15.246Z,66.48
2024-02-03T03:50:35.826Z,66.51
2024-02-03T03:50:56.417Z,66.37
2024-02-03T03:51:16.990Z,66.28
2024-02-03T03:51:37.653Z,66.25
2024-02-03T03:51:58.092Z,66.36
2024-02-03T03:52:18.692Z,66.31
2024-02-03T03:52:39.237Z,66.36
2024-02-03T03:52:59.838Z,66.31
2024-02-03T03:53:20.384Z,66.34
2024-02-03T03:53:40.994Z,66.37
2024-02-03T03:54:01.523Z,66.31
2024-02-03T03:54:22.180Z,66.29
2024-02-03T03:54:45.380Z,66.26
2024-02-03T03:55:03.328Z,66.41
2024-02-03T03:55:23.829Z,66.45
2024-02-03T03:55:44.415Z,66.58
2024-02-03T03:56:04.967Z,66.58
2024-02-03T03:56:25.586Z,66.54
2024-02-03T03:56:46.116Z,66.7
2024-02-03T03:57:06.729Z,66.79
2024-02-03T03:57:27.327Z,66.82
2024-02-03T03:57:47.929Z,66.8
2024-02-03T03:58:08.416Z,67.03
2024-02-03T03:58:28.987Z,67.07
2024-02-03T03:58:49.539Z,67.06
2024-02-03T03:59:10.133Z,67.05
2024-02-03T03:59:30.697Z,66.93
2024-02-03T03:59:51.289Z,66.85
2024-02-03T04:00:11.853Z,66.74
2024-02-03T04:00:32.639Z,66.64
2024-02-03T04:00:53.063Z,66.56
2024-02-03T04:01:13.642Z,66.47
2024-02-03T04:01:34.203Z,66.38
2024-02-03T04:01:54.701Z,66.56
2024-02-03T04:02:15.264Z,66.65
2024-02-03T04:02:35.848Z,66.73
2024-02-03T04:02:56.448Z,66.74
2024-02-03T04:03:17.060Z,66.65
2024-02-03T04:03:37.711Z,66.64
2024-02-03T04:03:58.216Z,66.55
2024-02-03T04:04:18.787Z,66.46
2024-02-03T04:04:39.420Z,66.42
2024-02-03T04:04:59.857Z,66.51
2024-02-03T04:05:20.450Z,66.6
2024-02-03T04:05:41.035Z,66.5
2024-02-03T04:06:01.646Z,66.54
2024-02-03T04:06:22.212Z,66.5
2024-02-03T04:06:42.755Z,66.4
2024-02-03T04:07:03.279Z,66.5
2024-02-03T04:07:23.928Z,66.46
2024-02-03T04:07:44.460Z,66.41
2024-02-03T04:08:05.076Z,66.38
2024-02-03T04:08:25.589Z,66.36
2024-02-03T04:08:46.213Z,66.36
2024-02-03T04:09:06.800Z,66.28
2024-02-03T04:09:27.366Z,66.18
2024-02-03T04:09:47.935Z,66.11
2024-02-03T04:10:08.449Z,66.03
2024-02-03T04:10:29.016Z,65.99
2024-02-03T04:10:49.617Z,65.94
2024-02-03T04:11:10.224Z,66.04
2024-02-03T04:11:30.653Z,66.04
2024-02-03T04:11:51.327Z,66.02
2024-02-03T04:12:11.913Z,66
2024-02-03T04:12:32.963Z,66.08
2024-02-03T04:12:53.105Z,66.15
2024-02-03T04:13:13.631Z,66.25
2024-02-03T04:13:34.161Z,66.25
2024-02-03T04:13:54.752Z,66.38
2024-02-03T04:14:15.317Z,66.36
2024-02-03T04:14:35.905Z,66.36
2024-02-03T04:14:56.453Z,66.54
2024-02-03T04:15:17.048Z,66.6
2024-02-03T04:15:37.681Z,66.72
2024-02-03T04:15:58.250Z,66.71
2024-02-03T04:16:18.749Z,66.65
2024-02-03T04:16:39.322Z,66.59
2024-02-03T04:16:59.891Z,66.48
2024-02-03T04:17:20.486Z,66.49
2024-02-03T04:17:41.058Z,66.45
2024-02-03T04:18:01.683Z,66.43
2024-02-03T04:18:22.378Z,66.38
2024-02-03T04:18:42.932Z,66.37
2024-02-03T04:19:03.495Z,66.3
2024-02-03T04:19:24.079Z,66.54
2024-02-03T04:19:44.771Z,66.77
2024-02-03T04:20:05.250Z,66.71
2024-02-03T04:20:25.685Z,66.61
2024-02-03T04:20:46.224Z,66.44
2024-02-03T04:21:23.251Z,66.55
2024-02-03T04:21:43.841Z,66.47
2024-02-03T04:22:04.381Z,66.33
2024-02-03T04:22:24.985Z,66.22
2024-02-03T04:22:45.933Z,66.16
2024-02-03T04:23:06.122Z,66.12
2024-02-03T04:23:26.686Z,66.32
2024-02-03T04:23:47.258Z,66.53
2024-02-03T04:24:07.863Z,66.57
2024-02-03T04:24:28.411Z,66.56
2024-02-03T04:24:49.072Z,66.62
2024-02-03T04:25:09.568Z,66.45
2024-02-03T04:25:30.121Z,66.42
2024-02-03T04:25:50.716Z,66.46
2024-02-03T04:26:11.255Z,66.31
2024-02-03T04:26:31.807Z,66.21
2024-02-03T04:26:52.337Z,66.17
2024-02-03T04:27:12.991Z,66.22
2024-02-03T04:27:33.612Z,66.33
2024-02-03T04:27:54.178Z,66.32
2024-02-03T04:28:14.682Z,66.34
2024-02-03T04:28:35.261Z,66.19
2024-02-03T04:28:55.878Z,66.1
2024-02-03T04:29:16.410Z,66.32